sensor_id;sensor_type;location;lat;lon;timestamp;pressure;altitude;pressure_sealevel;temperature;humidity
21276;BME280;36472;52.170;20.884;2023-05-23T00:00:07;100457.75;;;14.00;72.11
21276;BME280;36472;52.170;20.884;2023-05-23T00:03:03;100460.78;;;13.96;72.06
21276;BME280;36472;52.170;20.884;2023-05-23T00:05:32;100446.38;;;13.89;71.99
21276;BME280;36472;52.170;20.884;2023-05-23T00:08:02;100451.91;;;13.86;72.20
21276;BME280;36472;52.170;20.884;2023-05-23T00:10:31;100458.25;;;13.83;72.50
21276;BME280;36472;52.170;20.884;2023-05-23T00:13:01;100459.47;;;13.79;72.65
21276;BME280;36472;52.170;20.884;2023-05-23T00:15:31;100458.75;;;13.77;72.76
21276;BME280;36472;52.170;20.884;2023-05-23T00:18:01;100463.41;;;13.73;72.76
21276;BME280;36472;52.170;20.884;2023-05-23T00:20:29;100455.84;;;13.69;73.14
21276;BME280;36472;52.170;20.884;2023-05-23T00:22:58;100458.00;;;13.63;73.56
21276;BME280;36472;52.170;20.884;2023-05-23T00:25:27;100448.63;;;13.59;73.83
21276;BME280;36472;52.170;20.884;2023-05-23T00:28:03;100454.03;;;13.58;73.90
21276;BME280;36472;52.170;20.884;2023-05-23T00:30:33;100451.25;;;13.59;72.55
21276;BME280;36472;52.170;20.884;2023-05-23T00:33:02;100454.03;;;13.58;73.08
21276;BME280;36472;52.170;20.884;2023-05-23T00:35:31;100453.03;;;13.47;73.53
21276;BME280;36472;52.170;20.884;2023-05-23T00:38:00;100447.03;;;13.45;73.39
21276;BME280;36472;52.170;20.884;2023-05-23T00:40:29;100440.22;;;13.43;73.44
21276;BME280;36472;52.170;20.884;2023-05-23T00:42:59;100445.63;;;13.41;73.47
21276;BME280;36472;52.170;20.884;2023-05-23T00:45:29;100437.47;;;13.44;73.49
21276;BME280;36472;52.170;20.884;2023-05-23T00:47:59;100443.19;;;13.38;73.61
21276;BME280;36472;52.170;20.884;2023-05-23T00:50:29;100442.84;;;13.43;73.48
21276;BME280;36472;52.170;20.884;2023-05-23T00:53:00;100432.88;;;13.35;73.65
21276;BME280;36472;52.170;20.884;2023-05-23T00:55:30;100436.38;;;13.36;74.22
21276;BME280;36472;52.170;20.884;2023-05-23T00:57:59;100443.44;;;13.35;74.33
21276;BME280;36472;52.170;20.884;2023-05-23T01:00:31;100438.03;;;13.37;74.15
21276;BME280;36472;52.170;20.884;2023-05-23T01:03:00;100440.06;;;13.33;74.29
21276;BME280;36472;52.170;20.884;2023-05-23T01:05:30;100440.28;;;13.30;73.82
21276;BME280;36472;52.170;20.884;2023-05-23T01:07:59;100445.06;;;13.25;73.80
21276;BME280;36472;52.170;20.884;2023-05-23T01:10:30;100446.25;;;13.21;73.97
21276;BME280;36472;52.170;20.884;2023-05-23T01:13:15;100439.41;;;13.18;74.04
21276;BME280;36472;52.170;20.884;2023-05-23T01:15:54;100448.41;;;13.16;74.07
21276;BME280;36472;52.170;20.884;2023-05-23T01:18:36;100449.56;;;13.12;74.00
21276;BME280;36472;52.170;20.884;2023-05-23T01:21:14;100447.41;;;13.05;74.42
21276;BME280;36472;52.170;20.884;2023-05-23T01:27:18;100445.34;;;12.98;74.66
21276;BME280;36472;52.170;20.884;2023-05-23T01:29:56;100453.34;;;12.96;75.28
21276;BME280;36472;52.170;20.884;2023-05-23T01:32:27;100442.09;;;12.94;74.99
21276;BME280;36472;52.170;20.884;2023-05-23T01:34:59;100444.09;;;12.90;74.92
21276;BME280;36472;52.170;20.884;2023-05-23T01:37:28;100432.94;;;12.87;75.23
21276;BME280;36472;52.170;20.884;2023-05-23T01:39:58;100434.75;;;12.86;75.26
21276;BME280;36472;52.170;20.884;2023-05-23T01:42:27;100433.78;;;12.87;75.23
21276;BME280;36472;52.170;20.884;2023-05-23T01:44:58;100423.81;;;12.80;75.35
21276;BME280;36472;52.170;20.884;2023-05-23T01:47:28;100434.38;;;12.80;75.44
21276;BME280;36472;52.170;20.884;2023-05-23T01:49:59;100427.63;;;12.76;75.25
21276;BME280;36472;52.170;20.884;2023-05-23T01:52:29;100425.34;;;12.71;75.68
21276;BME280;36472;52.170;20.884;2023-05-23T01:54:59;100421.34;;;12.65;75.89
21276;BME280;36472;52.170;20.884;2023-05-23T01:57:29;100415.34;;;12.63;76.23
21276;BME280;36472;52.170;20.884;2023-05-23T02:00:00;100418.97;;;12.62;76.13
21276;BME280;36472;52.170;20.884;2023-05-23T02:02:40;100412.09;;;12.60;76.10
21276;BME280;36472;52.170;20.884;2023-05-23T02:05:10;100412.22;;;12.58;76.33
21276;BME280;36472;52.170;20.884;2023-05-23T02:07:39;100413.19;;;12.57;76.77
21276;BME280;36472;52.170;20.884;2023-05-23T02:10:09;100414.84;;;12.58;76.67
21276;BME280;36472;52.170;20.884;2023-05-23T02:12:38;100413.41;;;12.54;76.87
21276;BME280;36472;52.170;20.884;2023-05-23T02:15:09;100414.22;;;12.54;76.70
21276;BME280;36472;52.170;20.884;2023-05-23T02:17:38;100411.91;;;12.50;77.13
21276;BME280;36472;52.170;20.884;2023-05-23T02:20:09;100409.41;;;12.48;77.16
21276;BME280;36472;52.170;20.884;2023-05-23T02:22:38;100410.38;;;12.47;77.31
21276;BME280;36472;52.170;20.884;2023-05-23T02:25:08;100402.34;;;12.49;77.66
21276;BME280;36472;52.170;20.884;2023-05-23T02:27:39;100396.09;;;12.50;77.94
21276;BME280;36472;52.170;20.884;2023-05-23T02:30:10;100396.97;;;12.50;77.24
21276;BME280;36472;52.170;20.884;2023-05-23T02:32:39;100398.13;;;12.46;77.38
21276;BME280;36472;52.170;20.884;2023-05-23T02:35:08;100394.44;;;12.49;77.55
21276;BME280;36472;52.170;20.884;2023-05-23T02:37:37;100394.66;;;12.46;77.93
21276;BME280;36472;52.170;20.884;2023-05-23T02:40:08;100393.56;;;12.48;78.26
21276;BME280;36472;52.170;20.884;2023-05-23T02:42:37;100396.31;;;12.47;78.43
21276;BME280;36472;52.170;20.884;2023-05-23T02:45:09;100398.13;;;12.46;78.37
21276;BME280;36472;52.170;20.884;2023-05-23T02:47:38;100393.56;;;12.48;78.11
21276;BME280;36472;52.170;20.884;2023-05-23T02:50:10;100390.13;;;12.48;77.73
21276;BME280;36472;52.170;20.884;2023-05-23T02:52:39;100396.31;;;12.47;77.60
21276;BME280;36472;52.170;20.884;2023-05-23T02:55:09;100395.38;;;12.48;77.83
21276;BME280;36472;52.170;20.884;2023-05-23T02:57:42;100393.56;;;12.48;77.64
21276;BME280;36472;52.170;20.884;2023-05-23T03:00:13;100396.22;;;12.48;77.71
21276;BME280;36472;52.170;20.884;2023-05-23T03:02:47;100394.09;;;12.53;78.65
21276;BME280;36472;52.170;20.884;2023-05-23T03:05:17;100392.81;;;12.59;79.18
21276;BME280;36472;52.170;20.884;2023-05-23T03:07:46;100397.88;;;12.62;78.87
21276;BME280;36472;52.170;20.884;2023-05-23T03:10:15;100396.88;;;12.63;77.87
21276;BME280;36472;52.170;20.884;2023-05-23T03:12:46;100392.34;;;12.65;78.16
21276;BME280;36472;52.170;20.884;2023-05-23T03:15:18;100394.88;;;12.67;77.66
21276;BME280;36472;52.170;20.884;2023-05-23T03:17:47;100392.13;;;12.68;77.91
21276;BME280;36472;52.170;20.884;2023-05-23T03:20:16;100389.25;;;12.71;78.88
21276;BME280;36472;52.170;20.884;2023-05-23T03:22:45;100393.34;;;12.76;78.74
21276;BME280;36472;52.170;20.884;2023-05-23T03:25:15;100393.94;;;12.79;78.27
21276;BME280;36472;52.170;20.884;2023-05-23T03:27:44;100396.59;;;12.79;78.72
21276;BME280;36472;52.170;20.884;2023-05-23T03:30:13;100402.50;;;12.83;78.22
21276;BME280;36472;52.170;20.884;2023-05-23T03:32:43;100397.94;;;12.85;77.64
21276;BME280;36472;52.170;20.884;2023-05-23T03:35:13;100394.31;;;12.86;77.64
21276;BME280;36472;52.170;20.884;2023-05-23T03:37:42;100398.22;;;12.93;77.50
21276;BME280;36472;52.170;20.884;2023-05-23T03:40:11;100400.88;;;13.04;78.02
21276;BME280;36472;52.170;20.884;2023-05-23T03:42:40;100399.94;;;13.17;77.38
21276;BME280;36472;52.170;20.884;2023-05-23T03:45:10;100396.84;;;13.23;75.97
21276;BME280;36472;52.170;20.884;2023-05-23T03:47:39;100398.91;;;13.31;76.48
21276;BME280;36472;52.170;20.884;2023-05-23T03:50:11;100397.72;;;13.35;75.73
21276;BME280;36472;52.170;20.884;2023-05-23T03:52:41;100400.50;;;13.44;75.67
21276;BME280;36472;52.170;20.884;2023-05-23T03:55:10;100389.69;;;13.47;75.13
21276;BME280;36472;52.170;20.884;2023-05-23T03:57:39;100391.84;;;13.54;74.42
21276;BME280;36472;52.170;20.884;2023-05-23T04:00:09;100394.75;;;13.62;74.01
21276;BME280;36472;52.170;20.884;2023-05-23T04:02:46;100395.81;;;13.71;73.68
21276;BME280;36472;52.170;20.884;2023-05-23T04:05:19;100388.97;;;13.79;73.30
21276;BME280;36472;52.170;20.884;2023-05-23T04:07:49;100380.06;;;13.92;73.08
21276;BME280;36472;52.170;20.884;2023-05-23T04:10:19;100382.00;;;14.01;73.26
21276;BME280;36472;52.170;20.884;2023-05-23T04:12:48;100378.97;;;14.06;72.48
21276;BME280;36472;52.170;20.884;2023-05-23T04:15:18;100373.06;;;14.13;72.02
21276;BME280;36472;52.170;20.884;2023-05-23T04:18:07;100379.31;;;14.24;71.16
21276;BME280;36472;52.170;20.884;2023-05-23T04:20:39;100376.88;;;14.32;71.02
21276;BME280;36472;52.170;20.884;2023-05-23T04:23:08;100372.75;;;14.39;70.93
21276;BME280;36472;52.170;20.884;2023-05-23T04:25:40;100385.50;;;14.45;70.58
21276;BME280;36472;52.170;20.884;2023-05-23T04:28:15;100381.84;;;14.57;69.66
21276;BME280;36472;52.170;20.884;2023-05-23T04:30:45;100385.69;;;14.65;68.94
21276;BME280;36472;52.170;20.884;2023-05-23T04:33:19;100379.38;;;14.77;69.44
21276;BME280;36472;52.170;20.884;2023-05-23T04:35:49;100382.78;;;14.89;69.51
21276;BME280;36472;52.170;20.884;2023-05-23T04:38:18;100386.34;;;14.99;68.75
21276;BME280;36472;52.170;20.884;2023-05-23T04:40:50;100379.44;;;15.08;67.37
21276;BME280;36472;52.170;20.884;2023-05-23T04:43:38;100388.03;;;15.21;66.49
21276;BME280;36472;52.170;20.884;2023-05-23T04:46:28;100372.78;;;15.34;65.44
21276;BME280;36472;52.170;20.884;2023-05-23T04:49:11;100376.63;;;15.51;64.35
21276;BME280;36472;52.170;20.884;2023-05-23T04:51:42;100375.69;;;15.62;64.23
21276;BME280;36472;52.170;20.884;2023-05-23T04:54:18;100383.44;;;15.75;63.77
21276;BME280;36472;52.170;20.884;2023-05-23T04:56:48;100373.84;;;15.84;63.74
21276;BME280;36472;52.170;20.884;2023-05-23T04:59:19;100373.72;;;15.95;62.26
21276;BME280;36472;52.170;20.884;2023-05-23T05:01:48;100368.44;;;16.05;61.09
21276;BME280;36472;52.170;20.884;2023-05-23T05:04:18;100373.50;;;16.18;60.51
21276;BME280;36472;52.170;20.884;2023-05-23T05:06:52;100368.06;;;16.29;60.60
21276;BME280;36472;52.170;20.884;2023-05-23T05:09:21;100367.13;;;16.40;59.90
21276;BME280;36472;52.170;20.884;2023-05-23T05:11:51;100362.34;;;16.53;59.65
21276;BME280;36472;52.170;20.884;2023-05-23T05:14:20;100366.25;;;16.69;58.92
21276;BME280;36472;52.170;20.884;2023-05-23T05:16:49;100363.19;;;16.83;59.26
21276;BME280;36472;52.170;20.884;2023-05-23T05:19:20;100358.88;;;17.01;57.76
21276;BME280;36472;52.170;20.884;2023-05-23T05:21:51;100363.69;;;17.26;56.91
21276;BME280;36472;52.170;20.884;2023-05-23T05:24:20;100353.66;;;17.47;56.70
21276;BME280;36472;52.170;20.884;2023-05-23T05:26:49;100362.25;;;17.69;56.90
21276;BME280;36472;52.170;20.884;2023-05-23T05:29:18;100352.34;;;17.99;55.13
21276;BME280;36472;52.170;20.884;2023-05-23T05:31:47;100359.34;;;18.36;54.15
21276;BME280;36472;52.170;20.884;2023-05-23T05:34:16;100357.91;;;18.77;53.49
21276;BME280;36472;52.170;20.884;2023-05-23T05:36:45;100359.59;;;19.04;52.63
21276;BME280;36472;52.170;20.884;2023-05-23T05:39:18;100360.97;;;19.35;51.86
21276;BME280;36472;52.170;20.884;2023-05-23T05:41:47;100355.63;;;19.61;50.76
21276;BME280;36472;52.170;20.884;2023-05-23T05:44:17;100362.06;;;19.85;50.22
21276;BME280;36472;52.170;20.884;2023-05-23T05:46:46;100357.13;;;20.06;49.18
21276;BME280;36472;52.170;20.884;2023-05-23T05:49:15;100359.16;;;20.21;48.77
21276;BME280;36472;52.170;20.884;2023-05-23T05:51:45;100358.19;;;20.38;48.44
21276;BME280;36472;52.170;20.884;2023-05-23T05:54:14;100359.38;;;20.52;48.79
21276;BME280;36472;52.170;20.884;2023-05-23T05:56:47;100366.56;;;20.68;48.12
21276;BME280;36472;52.170;20.884;2023-05-23T05:59:16;100362.22;;;20.75;47.21
21276;BME280;36472;52.170;20.884;2023-05-23T06:01:45;100360.53;;;20.99;46.70
21276;BME280;36472;52.170;20.884;2023-05-23T06:04:14;100363.22;;;21.07;46.09
21276;BME280;36472;52.170;20.884;2023-05-23T06:06:43;100361.03;;;21.19;45.73
21276;BME280;36472;52.170;20.884;2023-05-23T06:09:12;100358.13;;;21.37;45.90
21276;BME280;36472;52.170;20.884;2023-05-23T06:11:42;100357.44;;;21.43;46.00
21276;BME280;36472;52.170;20.884;2023-05-23T06:14:12;100358.88;;;21.70;45.15
21276;BME280;36472;52.170;20.884;2023-05-23T06:16:45;100360.16;;;21.82;44.70
21276;BME280;36472;52.170;20.884;2023-05-23T06:19:14;100353.16;;;21.81;43.94
21276;BME280;36472;52.170;20.884;2023-05-23T06:21:44;100352.88;;;21.99;44.84
21276;BME280;36472;52.170;20.884;2023-05-23T06:24:14;100345.34;;;22.26;42.92
21276;BME280;36472;52.170;20.884;2023-05-23T06:26:43;100346.88;;;22.20;43.54
21276;BME280;36472;52.170;20.884;2023-05-23T06:29:15;100338.66;;;22.30;41.86
21276;BME280;36472;52.170;20.884;2023-05-23T06:31:44;100337.47;;;22.33;42.08
21276;BME280;36472;52.170;20.884;2023-05-23T06:34:13;100335.53;;;22.50;43.08
21276;BME280;36472;52.170;20.884;2023-05-23T06:36:42;100335.63;;;22.56;42.48
21276;BME280;36472;52.170;20.884;2023-05-23T06:39:13;100328.53;;;22.78;41.93
21276;BME280;36472;52.170;20.884;2023-05-23T06:41:43;100323.47;;;23.07;42.47
21276;BME280;36472;52.170;20.884;2023-05-23T06:44:14;100331.50;;;23.22;41.86
21276;BME280;36472;52.170;20.884;2023-05-23T06:46:45;100326.03;;;23.45;42.07
21276;BME280;36472;52.170;20.884;2023-05-23T06:49:14;100325.84;;;23.61;41.90
21276;BME280;36472;52.170;20.884;2023-05-23T06:51:44;100325.28;;;23.66;40.70
21276;BME280;36472;52.170;20.884;2023-05-23T06:54:14;100313.41;;;23.90;41.42
21276;BME280;36472;52.170;20.884;2023-05-23T06:56:44;100308.66;;;24.07;41.06
21276;BME280;36472;52.170;20.884;2023-05-23T06:59:17;100311.66;;;24.19;40.45
21276;BME280;36472;52.170;20.884;2023-05-23T07:01:58;100320.78;;;24.24;38.49
21276;BME280;36472;52.170;20.884;2023-05-23T07:04:28;100310.81;;;24.18;37.64
21276;BME280;36472;52.170;20.884;2023-05-23T07:07:02;100308.97;;;24.19;37.98
21276;BME280;36472;52.170;20.884;2023-05-23T07:09:32;100303.59;;;24.19;37.48
21276;BME280;36472;52.170;20.884;2023-05-23T07:12:12;100303.75;;;24.39;37.84
21276;BME280;36472;52.170;20.884;2023-05-23T07:14:44;100307.72;;;24.64;37.96
21276;BME280;36472;52.170;20.884;2023-05-23T07:17:14;100301.34;;;24.66;37.64
21276;BME280;36472;52.170;20.884;2023-05-23T07:19:45;100302.28;;;24.79;37.58
21276;BME280;36472;52.170;20.884;2023-05-23T07:22:14;100295.94;;;24.94;36.30
21276;BME280;36472;52.170;20.884;2023-05-23T07:24:43;100292.53;;;24.78;36.11
21276;BME280;36472;52.170;20.884;2023-05-23T07:27:14;100288.31;;;24.91;35.87
21276;BME280;36472;52.170;20.884;2023-05-23T07:29:44;100295.75;;;24.95;35.61
21276;BME280;36472;52.170;20.884;2023-05-23T07:32:13;100290.56;;;24.94;35.17
21276;BME280;36472;52.170;20.884;2023-05-23T07:34:43;100288.19;;;25.12;35.85
21276;BME280;36472;52.170;20.884;2023-05-23T07:37:12;100287.81;;;25.15;35.48
21276;BME280;36472;52.170;20.884;2023-05-23T07:39:43;100278.69;;;25.10;33.83
21276;BME280;36472;52.170;20.884;2023-05-23T07:42:13;100275.50;;;24.93;34.40
21276;BME280;36472;52.170;20.884;2023-05-23T07:44:41;100277.22;;;24.72;32.71
21276;BME280;36472;52.170;20.884;2023-05-23T07:47:12;100266.56;;;24.57;35.11
21276;BME280;36472;52.170;20.884;2023-05-23T07:49:41;100267.91;;;24.75;35.52
21276;BME280;36472;52.170;20.884;2023-05-23T07:52:11;100275.50;;;24.93;34.95
21276;BME280;36472;52.170;20.884;2023-05-23T07:54:40;100272.59;;;24.94;33.12
21276;BME280;36472;52.170;20.884;2023-05-23T07:57:10;100277.16;;;25.00;32.88
21276;BME280;36472;52.170;20.884;2023-05-23T07:59:39;100265.16;;;24.96;32.98
21276;BME280;36472;52.170;20.884;2023-05-23T08:02:09;100266.41;;;25.00;32.77
21276;BME280;36472;52.170;20.884;2023-05-23T08:04:41;100275.88;;;24.90;33.33
21276;BME280;36472;52.170;20.884;2023-05-23T08:07:12;100274.63;;;24.86;32.45
21276;BME280;36472;52.170;20.884;2023-05-23T08:09:47;100271.84;;;24.72;32.35
21276;BME280;36472;52.170;20.884;2023-05-23T08:12:18;100270.78;;;24.67;33.10
21276;BME280;36472;52.170;20.884;2023-05-23T08:14:51;100272.41;;;24.68;32.79
21276;BME280;36472;52.170;20.884;2023-05-23T08:17:26;100266.72;;;24.77;32.39
21276;BME280;36472;52.170;20.884;2023-05-23T08:19:56;100268.81;;;24.82;33.54
21276;BME280;36472;52.170;20.884;2023-05-23T08:22:28;100266.38;;;24.94;33.14
21276;BME280;36472;52.170;20.884;2023-05-23T08:24:57;100260.56;;;24.90;32.75
21276;BME280;36472;52.170;20.884;2023-05-23T08:27:29;100253.63;;;24.68;33.20
21276;BME280;36472;52.170;20.884;2023-05-23T08:30:06;100254.38;;;24.90;33.87
21276;BME280;36472;52.170;20.884;2023-05-23T08:32:37;100256.47;;;24.94;32.56
21276;BME280;36472;52.170;20.884;2023-05-23T08:35:08;100250.56;;;25.12;32.07
21276;BME280;36472;52.170;20.884;2023-05-23T08:37:40;100246.75;;;25.28;32.42
21276;BME280;36472;52.170;20.884;2023-05-23T08:40:16;100250.91;;;25.37;32.57
21276;BME280;36472;52.170;20.884;2023-05-23T08:42:51;100240.00;;;25.46;31.94
21276;BME280;36472;52.170;20.884;2023-05-23T08:45:21;100244.38;;;25.60;31.83
21276;BME280;36472;52.170;20.884;2023-05-23T08:47:51;100236.00;;;25.28;31.66
21276;BME280;36472;52.170;20.884;2023-05-23T08:50:27;100242.22;;;25.35;31.04
21276;BME280;36472;52.170;20.884;2023-05-23T08:52:58;100237.75;;;25.56;32.57
21276;BME280;36472;52.170;20.884;2023-05-23T08:55:29;100232.19;;;25.71;31.23
21276;BME280;36472;52.170;20.884;2023-05-23T08:58:01;100223.72;;;25.81;31.14
21276;BME280;36472;52.170;20.884;2023-05-23T09:00:46;100229.94;;;25.74;31.77
21276;BME280;36472;52.170;20.884;2023-05-23T09:03:17;100235.66;;;25.51;30.09
21276;BME280;36472;52.170;20.884;2023-05-23T09:06:10;100231.19;;;25.85;30.15
21276;BME280;36472;52.170;20.884;2023-05-23T09:08:41;100238.38;;;25.58;29.64
21276;BME280;36472;52.170;20.884;2023-05-23T09:11:14;100232.00;;;25.72;29.61
21276;BME280;36472;52.170;20.884;2023-05-23T09:13:45;100227.66;;;25.78;29.91
21276;BME280;36472;52.170;20.884;2023-05-23T09:16:17;100222.09;;;25.93;30.87
21276;BME280;36472;52.170;20.884;2023-05-23T09:18:51;100220.88;;;26.09;30.49
21276;BME280;36472;52.170;20.884;2023-05-23T09:21:23;100215.84;;;25.86;30.64
21276;BME280;36472;52.170;20.884;2023-05-23T09:24:04;100214.69;;;26.02;30.72
21276;BME280;36472;52.170;20.884;2023-05-23T09:26:33;100211.72;;;25.83;30.05
21276;BME280;36472;52.170;20.884;2023-05-23T09:29:05;100205.16;;;26.12;30.11
21276;BME280;36472;52.170;20.884;2023-05-23T09:31:35;100206.38;;;26.30;29.91
21276;BME280;36472;52.170;20.884;2023-05-23T09:34:04;100217.56;;;26.47;29.66
21276;BME280;36472;52.170;20.884;2023-05-23T09:36:34;100218.81;;;26.51;28.88
21276;BME280;36472;52.170;20.884;2023-05-23T09:39:04;100213.81;;;26.55;29.21
21276;BME280;36472;52.170;20.884;2023-05-23T09:41:34;100217.56;;;26.47;28.78
21276;BME280;36472;52.170;20.884;2023-05-23T09:44:07;100211.53;;;26.58;28.48
21276;BME280;36472;52.170;20.884;2023-05-23T09:46:37;100212.78;;;26.76;28.98
21276;BME280;36472;52.170;20.884;2023-05-23T09:49:16;100218.13;;;26.89;28.29
21276;BME280;36472;52.170;20.884;2023-05-23T09:51:58;100207.84;;;27.24;28.59
21276;BME280;36472;52.170;20.884;2023-05-23T09:54:27;100206.44;;;27.60;27.10
21276;BME280;36472;52.170;20.884;2023-05-23T09:56:59;100212.91;;;27.53;28.08
21276;BME280;36472;52.170;20.884;2023-05-23T09:59:37;100212.16;;;27.39;27.19
21276;BME280;36472;52.170;20.884;2023-05-23T10:02:10;100201.38;;;27.32;28.15
21276;BME280;36472;52.170;20.884;2023-05-23T10:04:41;100211.28;;;27.45;27.81
21276;BME280;36472;52.170;20.884;2023-05-23T10:07:17;100212.69;;;27.02;27.15
21276;BME280;36472;52.170;20.884;2023-05-23T10:09:55;100213.13;;;26.93;28.02
21276;BME280;36472;52.170;20.884;2023-05-23T10:12:46;100204.22;;;26.99;28.27
21276;BME280;36472;52.170;20.884;2023-05-23T10:15:18;100208.78;;;26.85;27.72
21276;BME280;36472;52.170;20.884;2023-05-23T10:18:05;100204.97;;;27.13;27.05
21276;BME280;36472;52.170;20.884;2023-05-23T10:20:38;100197.50;;;27.15;29.33
21276;BME280;36472;52.170;20.884;2023-05-23T10:23:10;100193.06;;;27.27;28.04
21276;BME280;36472;52.170;20.884;2023-05-23T10:25:42;100190.84;;;27.63;27.10
21276;BME280;36472;52.170;20.884;2023-05-23T10:28:13;100185.75;;;28.05;27.10
21276;BME280;36472;52.170;20.884;2023-05-23T10:30:43;100198.66;;;28.53;27.80
21276;BME280;36472;52.170;20.884;2023-05-23T10:33:14;100196.66;;;28.67;27.06
21276;BME280;36472;52.170;20.884;2023-05-23T10:35:55;100192.59;;;28.76;27.63
21276;BME280;36472;52.170;20.884;2023-05-23T10:38:35;100194.47;;;28.57;26.56
21276;BME280;36472;52.170;20.884;2023-05-23T10:41:15;100191.88;;;28.44;25.36
21276;BME280;36472;52.170;20.884;2023-05-23T10:43:54;100188.19;;;28.38;26.71
21276;BME280;36472;52.170;20.884;2023-05-23T10:46:52;100187.00;;;28.52;27.79
21276;BME280;36472;52.170;20.884;2023-05-23T10:49:36;100189.81;;;28.64;27.67
21276;BME280;36472;52.170;20.884;2023-05-23T10:52:06;100199.88;;;28.76;27.45
21276;BME280;36472;52.170;20.884;2023-05-23T10:54:42;100196.38;;;28.94;27.75
21276;BME280;36472;52.170;20.884;2023-05-23T10:57:16;100181.75;;;29.13;25.80
21276;BME280;36472;52.170;20.884;2023-05-23T10:59:48;100176.03;;;29.40;26.54
21276;BME280;36472;52.170;20.884;2023-05-23T11:02:24;100171.28;;;29.65;25.71
21276;BME280;36472;52.170;20.884;2023-05-23T11:05:20;100187.94;;;28.83;25.37
21276;BME280;36472;52.170;20.884;2023-05-23T11:08:10;100167.22;;;28.33;26.59
21276;BME280;36472;52.170;20.884;2023-05-23T11:10:57;100172.19;;;27.86;27.10
21276;BME280;36472;52.170;20.884;2023-05-23T11:13:56;100165.78;;;27.55;27.26
21276;BME280;36472;52.170;20.884;2023-05-23T11:16:29;100161.06;;;27.44;28.12
21276;BME280;36472;52.170;20.884;2023-05-23T11:19:21;100162.66;;;27.13;28.28
21276;BME280;36472;52.170;20.884;2023-05-23T11:21:56;100155.97;;;27.16;27.77
21276;BME280;36472;52.170;20.884;2023-05-23T11:24:49;100155.75;;;27.31;28.33
21276;BME280;36472;52.170;20.884;2023-05-23T11:27:28;100157.91;;;27.79;28.25
21276;BME280;36472;52.170;20.884;2023-05-23T11:30:02;100154.34;;;27.85;27.96
21276;BME280;36472;52.170;20.884;2023-05-23T11:32:32;100139.25;;;28.03;27.87
21276;BME280;36472;52.170;20.884;2023-05-23T11:35:04;100144.38;;;28.11;27.57
21276;BME280;36472;52.170;20.884;2023-05-23T11:37:34;100149.53;;;28.38;27.21
21276;BME280;36472;52.170;20.884;2023-05-23T11:40:26;100151.22;;;28.57;25.93
21276;BME280;36472;52.170;20.884;2023-05-23T11:42:57;100148.34;;;28.52;26.82
21276;BME280;36472;52.170;20.884;2023-05-23T11:45:29;100143.84;;;28.46;25.62
21276;BME280;36472;52.170;20.884;2023-05-23T11:48:04;100144.59;;;28.53;26.60
21276;BME280;36472;52.170;20.884;2023-05-23T11:50:42;100140.84;;;28.35;26.72
21276;BME280;36472;52.170;20.884;2023-05-23T11:53:12;100134.22;;;28.50;26.61
21276;BME280;36472;52.170;20.884;2023-05-23T11:55:52;100139.31;;;28.40;26.90
21276;BME280;36472;52.170;20.884;2023-05-23T11:58:27;100128.88;;;28.25;26.34
21276;BME280;36472;52.170;20.884;2023-05-23T12:00:59;100125.34;;;28.24;27.64
21276;BME280;36472;52.170;20.884;2023-05-23T12:03:29;100117.56;;;28.34;27.28
21276;BME280;36472;52.170;20.884;2023-05-23T12:05:59;100122.06;;;28.22;26.52
21276;BME280;36472;52.170;20.884;2023-05-23T12:08:28;100123.59;;;28.11;26.59
21276;BME280;36472;52.170;20.884;2023-05-23T12:10:59;100117.94;;;27.94;28.50
21276;BME280;36472;52.170;20.884;2023-05-23T12:13:29;100120.63;;;27.69;28.69
21276;BME280;36472;52.170;20.884;2023-05-23T12:16:01;100121.84;;;27.03;26.35
21276;BME280;36472;52.170;20.884;2023-05-23T12:18:32;100127.03;;;26.98;28.30
21276;BME280;36472;52.170;20.884;2023-05-23T12:21:04;100122.97;;;26.82;27.87
21276;BME280;36472;52.170;20.884;2023-05-23T12:23:35;100107.22;;;26.79;28.05
21276;BME280;36472;52.170;20.884;2023-05-23T12:26:06;100120.22;;;26.88;29.13
21276;BME280;36472;52.170;20.884;2023-05-23T12:28:39;100118.59;;;26.87;27.15
21276;BME280;36472;52.170;20.884;2023-05-23T12:31:10;100116.34;;;26.78;29.14
21276;BME280;36472;52.170;20.884;2023-05-23T12:33:40;100114.72;;;26.70;28.93
21276;BME280;36472;52.170;20.884;2023-05-23T12:36:11;100106.47;;;26.65;28.09
21276;BME280;36472;52.170;20.884;2023-05-23T12:38:42;100104.56;;;26.59;27.71
21276;BME280;36472;52.170;20.884;2023-05-23T12:41:17;100102.69;;;26.66;29.41
21276;BME280;36472;52.170;20.884;2023-05-23T12:43:52;100108.88;;;26.73;28.88
21276;BME280;36472;52.170;20.884;2023-05-23T12:46:23;100105.97;;;26.75;28.96
21276;BME280;36472;52.170;20.884;2023-05-23T12:48:53;100099.81;;;26.67;28.21
21276;BME280;36472;52.170;20.884;2023-05-23T12:51:23;100092.34;;;26.63;28.63
21276;BME280;36472;52.170;20.884;2023-05-23T12:53:52;100101.06;;;26.58;30.40
21276;BME280;36472;52.170;20.884;2023-05-23T12:56:22;100097.78;;;26.49;30.11
21276;BME280;36472;52.170;20.884;2023-05-23T12:58:52;100092.38;;;26.49;29.10
21276;BME280;36472;52.170;20.884;2023-05-23T13:01:22;100097.31;;;26.59;29.91
21276;BME280;36472;52.170;20.884;2023-05-23T13:03:51;100085.31;;;26.55;28.84
21276;BME280;36472;52.170;20.884;2023-05-23T13:06:20;100092.41;;;26.43;29.99
21276;BME280;36472;52.170;20.884;2023-05-23T13:08:49;100090.34;;;26.38;29.96